Time;durP1;ratioP1;P1;durP2;ratioP2;P2;SDS_P1;SDS_P2;PMS_P1;PMS_P2;Temp;Humidity;BMP_temperature;BMP_pressure;BME280_temperature;BME280_humidity;BME280_pressure;Samples;Min_cycle;Max_cycle;Signal;HPM_P1;HPM_P2
2022/09/07 00:01:18;;;;;;;13.68;9.98;;;17.80;99.90;;;;;;5043839;28;20038;-65
2022/09/07 00:03:44;;;;;;;12.50;10.15;;;17.80;99.90;;;;;;5039508;28;20436;-65
2022/09/07 00:06:12;;;;;;;13.80;10.13;;;17.80;99.90;;;;;;5034294;28;20056;-67
2022/09/07 00:08:39;;;;;;;10.73;9.63;;;17.70;99.90;;;;;;5036481;28;20048;-66
2022/09/07 00:11:07;;;;;;;13.65;10.05;;;17.70;99.90;;;;;;5040661;28;20099;-66
2022/09/07 00:13:35;;;;;;;13.27;11.27;;;17.70;99.90;;;;;;5039728;28;20091;-65
2022/09/07 00:16:15;;;;;;;19.73;12.70;;;17.60;99.90;;;;;;5042160;28;20025;-66
2022/09/07 00:18:41;;;;;;;16.23;12.77;;;17.50;99.90;;;;;;5034565;28;20033;-66
2022/09/07 00:21:09;;;;;;;14.25;11.13;;;17.30;99.90;;;;;;5046325;28;20134;-66
2022/09/07 00:23:36;;;;;;;14.40;11.45;;;17.20;99.90;;;;;;5023111;28;20068;-65
2022/09/07 00:26:08;;;;;;;15.15;10.98;;;17.30;99.90;;;;;;5045581;28;20037;-65
2022/09/07 00:28:35;;;;;;;13.55;10.82;;;17.10;99.90;;;;;;5031217;28;20048;-66
2022/09/07 00:31:00;;;;;;;15.68;11.15;;;17.30;99.90;;;;;;5041982;28;20045;-65
2022/09/07 00:33:27;;;;;;;11.43;10.23;;;17.30;99.90;;;;;;5042845;28;20490;-66
2022/09/07 00:35:52;;;;;;;12.07;10.88;;;17.30;99.90;;;;;;5044639;28;20048;-66
2022/09/07 00:38:18;;;;;;;14.45;10.40;;;17.30;99.90;;;;;;5029206;28;20401;-66
2022/09/07 00:40:44;;;;;;;12.65;11.35;;;17.30;99.90;;;;;;5043480;28;20049;-66
2022/09/07 00:43:29;;;;;;;12.90;10.82;;;17.20;99.90;;;;;;5040244;28;20128;-65
2022/09/07 00:45:55;;;;;;;17.90;12.88;;;17.20;99.90;;;;;;5043917;28;20407;-66
2022/09/07 00:48:25;;;;;;;17.05;12.63;;;16.90;99.90;;;;;;5025991;28;20042;-66
2022/09/07 00:50:57;;;;;;;14.40;11.80;;;16.90;99.90;;;;;;5042626;28;20049;-66
2022/09/07 00:53:28;;;;;;;12.85;11.55;;;17.00;99.90;;;;;;5042734;28;20053;-65
2022/09/07 00:55:55;;;;;;;14.95;11.60;;;17.00;99.90;;;;;;5047381;28;20049;-66
2022/09/07 00:58:22;;;;;;;14.18;10.98;;;17.00;99.90;;;;;;5028748;28;20048;-66
2022/09/07 01:00:49;;;;;;;12.18;10.88;;;17.00;99.90;;;;;;5041579;28;20151;-66
2022/09/07 01:03:21;;;;;;;13.85;11.90;;;17.00;99.90;;;;;;5041160;28;20056;-66
2022/09/07 01:06:05;;;;;;;12.23;10.65;;;16.90;99.90;;;;;;5039382;28;20409;-66
2022/09/07 01:08:31;;;;;;;15.38;10.77;;;16.90;99.90;;;;;;5027152;28;20076;-65
2022/09/07 01:10:59;;;;;;;18.02;11.27;;;17.00;99.90;;;;;;5042039;28;20045;-66
2022/09/07 01:13:26;;;;;;;13.95;11.07;;;17.00;99.90;;;;;;5039125;28;20073;-65
2022/09/07 01:16:16;;;;;;;14.77;11.25;;;17.00;99.90;;;;;;5039805;28;20144;-65
2022/09/07 01:19:26;;;;;;;12.02;10.77;;;17.00;99.90;;;;;;5036174;28;20045;-65
2022/09/07 01:22:11;;;;;;;12.15;10.40;;;17.00;99.90;;;;;;5013186;28;20052;-65
2022/09/07 01:24:55;;;;;;;18.75;11.48;;;17.00;99.90;;;;;;5037824;28;20101;-65
2022/09/07 01:27:51;;;;;;;13.05;10.70;;;17.00;99.90;;;;;;5025347;28;20140;-66
2022/09/07 01:30:19;;;;;;;15.95;11.35;;;17.00;99.90;;;;;;5042228;28;20052;-66
2022/09/07 01:33:02;;;;;;;15.73;13.18;;;17.00;99.90;;;;;;5045233;28;21484;-66
2022/09/07 01:36:00;;;;;;;23.27;16.08;;;16.80;99.90;;;;;;5040851;28;20051;-66
2022/09/07 01:38:51;;;;;;;18.25;15.75;;;16.60;99.90;;;;;;5024454;28;20072;-66
2022/09/07 01:41:25;;;;;;;17.85;15.95;;;16.50;99.90;;;;;;5041921;28;20045;-66
2022/09/07 01:44:00;;;;;;;22.13;18.33;;;16.50;99.90;;;;;;5037810;28;20052;-65
2022/09/07 01:46:29;;;;;;;22.60;12.85;;;16.60;99.90;;;;;;5026142;28;20510;-66
2022/09/07 01:49:03;;;;;;;23.92;13.70;;;16.50;99.90;;;;;;5039745;28;20044;-66
2022/09/07 01:51:32;;;;;;;34.25;20.63;;;16.30;99.90;;;;;;5039746;28;20427;-65
2022/09/07 01:54:15;;;;;;;30.25;20.98;;;16.10;99.90;;;;;;5023347;28;20357;-66
2022/09/07 01:56:46;;;;;;;39.67;23.15;;;16.10;99.90;;;;;;4994189;28;20056;-65
2022/09/07 01:59:20;;;;;;;57.03;31.20;;;16.00;99.90;;;;;;5038331;28;20037;-65
2022/09/07 02:01:53;;;;;;;51.85;31.85;;;16.10;99.90;;;;;;5039263;28;20479;-67
2022/09/07 02:04:23;;;;;;;56.13;33.60;;;16.10;99.90;;;;;;5040941;28;20115;-67
2022/09/07 02:06:59;;;;;;;38.25;27.83;;;16.10;99.90;;;;;;5028352;28;20056;-69
2022/09/07 02:09:37;;;;;;;34.22;21.63;;;16.10;99.90;;;;;;5040733;28;20053;-68
2022/09/07 02:12:13;;;;;;;32.28;19.50;;;16.10;99.90;;;;;;5039360;28;20485;-68
2022/09/07 02:14:43;;;;;;;25.98;19.23;;;16.20;99.90;;;;;;5022289;28;20139;-68
2022/09/07 02:17:27;;;;;;;33.90;20.00;;;16.10;99.90;;;;;;5023058;28;20095;-68
2022/09/07 02:20:00;;;;;;;25.70;16.88;;;16.10;99.90;;;;;;5021057;28;20046;-67
2022/09/07 02:22:29;;;;;;;23.80;15.60;;;16.10;99.90;;;;;;5019799;28;20045;-66
2022/09/07 02:24:59;;;;;;;19.02;12.93;;;16.10;99.90;;;;;;5017986;28;20505;-67
2022/09/07 02:27:39;;;;;;;13.88;10.40;;;16.10;99.90;;;;;;5006131;28;20041;-67
2022/09/07 02:30:06;;;;;;;16.30;10.70;;;16.10;99.90;;;;;;5041404;28;20049;-68
2022/09/07 02:32:32;;;;;;;16.27;11.75;;;16.20;99.90;;;;;;5034049;28;20492;-68
2022/09/07 02:34:57;;;;;;;14.90;11.23;;;16.20;99.90;;;;;;5035034;28;20045;-68
2022/09/07 02:37:26;;;;;;;16.02;10.73;;;16.20;99.90;;;;;;5023208;28;20053;-68
2022/09/07 02:39:52;;;;;;;14.27;10.45;;;16.20;99.90;;;;;;5037318;28;20191;-67
2022/09/07 02:42:17;;;;;;;14.98;10.13;;;16.20;99.90;;;;;;5021165;28;20551;-68
2022/09/07 02:44:45;;;;;;;12.10;9.40;;;16.20;99.90;;;;;;5035729;28;20479;-68
2022/09/07 02:47:33;;;;;;;14.60;10.15;;;16.20;99.90;;;;;;5020105;28;20508;-68
2022/09/07 02:50:19;;;;;;;11.38;9.68;;;16.30;99.90;;;;;;5039377;28;20509;-68
2022/09/07 02:53:26;;;;;;;13.50;10.57;;;16.30;99.90;;;;;;5037680;28;20042;-69
2022/09/07 02:56:18;;;;;;;13.30;10.02;;;16.30;99.90;;;;;;4958900;28;20447;-68
2022/09/07 02:59:06;;;;;;;14.18;10.95;;;16.30;99.90;;;;;;4941994;28;20051;-69
2022/09/07 03:01:52;;;;;;;12.65;10.52;;;16.30;99.90;;;;;;5018267;28;20551;-69
2022/09/07 03:04:43;;;;;;;13.02;10.38;;;16.30;99.90;;;;;;5036888;28;20436;-69
2022/09/07 03:07:13;;;;;;;14.20;10.40;;;16.30;99.90;;;;;;5021966;28;20053;-69
2022/09/07 03:09:45;;;;;;;15.68;10.50;;;16.20;99.90;;;;;;5038625;28;20460;-69
2022/09/07 03:12:11;;;;;;;11.00;9.63;;;16.30;99.90;;;;;;5040655;28;20491;-69
2022/09/07 03:14:40;;;;;;;12.75;9.95;;;16.40;99.90;;;;;;5042598;28;20519;-69
2022/09/07 03:17:07;;;;;;;12.48;10.43;;;16.40;99.90;;;;;;5024117;28;20049;-69
2022/09/07 03:19:32;;;;;;;11.98;10.20;;;16.30;99.90;;;;;;5021143;28;20496;-68
2022/09/07 03:21:58;;;;;;;15.40;10.30;;;16.40;99.90;;;;;;5025252;28;20045;-69
2022/09/07 03:24:24;;;;;;;15.93;10.63;;;16.40;99.90;;;;;;5038486;28;20047;-69
2022/09/07 03:26:50;;;;;;;15.27;10.60;;;16.40;99.90;;;;;;5024195;28;20048;-69
2022/09/07 03:29:17;;;;;;;11.88;9.63;;;16.40;99.90;;;;;;5041407;28;20136;-69
2022/09/07 03:31:43;;;;;;;11.27;9.80;;;16.40;99.90;;;;;;5041413;28;20570;-68
2022/09/07 03:34:09;;;;;;;9.50;8.45;;;16.40;99.90;;;;;;5040547;28;20045;-68
2022/09/07 03:36:35;;;;;;;13.70;9.70;;;16.40;99.90;;;;;;5030895;28;20040;-69
2022/09/07 03:39:01;;;;;;;14.70;9.27;;;16.40;99.90;;;;;;5041112;28;20053;-68
2022/09/07 03:41:27;;;;;;;10.93;8.50;;;16.40;99.90;;;;;;5041467;28;20134;-69
2022/09/07 03:43:53;;;;;;;12.32;9.38;;;16.40;99.90;;;;;;5038615;28;20059;-69
2022/09/07 03:46:19;;;;;;;9.38;8.38;;;16.50;99.90;;;;;;5026351;28;20132;-69
2022/09/07 03:48:46;;;;;;;10.30;8.02;;;16.50;99.90;;;;;;5039178;28;20136;-69
2022/09/07 03:51:14;;;;;;;10.38;7.90;;;16.50;99.90;;;;;;5022049;28;20046;-68
2022/09/07 03:53:42;;;;;;;11.20;8.68;;;16.40;99.90;;;;;;5021249;28;20041;-68
2022/09/07 03:56:11;;;;;;;12.57;8.50;;;16.40;99.90;;;;;;5019910;28;20094;-69
2022/09/07 03:58:37;;;;;;;11.23;8.80;;;16.40;99.90;;;;;;5018120;28;20041;-69
2022/09/07 04:01:11;;;;;;;11.38;9.05;;;16.40;99.90;;;;;;5024598;28;20120;-69
2022/09/07 04:03:38;;;;;;;9.70;8.70;;;16.30;99.90;;;;;;5039931;28;20056;-69
2022/09/07 04:06:04;;;;;;;8.82;7.45;;;16.40;99.90;;;;;;5026134;28;20041;-68
2022/09/07 04:08:33;;;;;;;9.55;7.20;;;16.20;99.90;;;;;;5032377;28;20041;-68
2022/09/07 04:11:00;;;;;;;8.82;7.03;;;16.30;99.90;;;;;;5025055;28;20041;-68
2022/09/07 04:13:27;;;;;;;10.65;6.50;;;16.30;99.90;;;;;;5045346;28;20044;-68
2022/09/07 04:15:53;;;;;;;7.82;6.72;;;16.30;99.90;;;;;;5024439;28;20046;-68
2022/09/07 04:18:19;;;;;;;7.63;6.85;;;16.30;99.90;;;;;;5009694;28;20069;-68
2022/09/07 04:20:45;;;;;;;8.05;6.70;;;16.30;99.90;;;;;;5025504;28;20141;-68
2022/09/07 04:23:11;;;;;;;7.45;6.50;;;16.30;99.90;;;;;;5023373;28;20037;-68
2022/09/07 04:25:37;;;;;;;8.93;6.95;;;16.20;99.90;;;;;;5025445;28;20729;-68
2022/09/07 04:28:03;;;;;;;8.10;6.57;;;16.20;99.90;;;;;;5009112;28;20048;-68
2022/09/07 04:30:29;;;;;;;12.07;7.07;;;16.20;99.90;;;;;;5039866;28;20040;-68
2022/09/07 04:32:55;;;;;;;7.90;6.32;;;16.20;99.90;;;;;;5042590;28;20557;-68
2022/09/07 04:35:21;;;;;;;10.20;6.43;;;16.20;99.90;;;;;;5044080;28;20049;-68
2022/09/07 04:37:47;;;;;;;7.45;5.82;;;16.10;99.90;;;;;;5026452;28;20049;-68
2022/09/07 04:40:13;;;;;;;7.82;6.32;;;16.00;99.90;;;;;;5025597;28;20041;-68
2022/09/07 04:42:38;;;;;;;8.55;5.88;;;15.90;99.90;;;;;;5023438;28;20049;-68
2022/09/07 04:45:05;;;;;;;7.32;6.57;;;15.90;99.90;;;;;;5012004;28;20037;-68
2022/09/07 04:47:30;;;;;;;10.20;7.35;;;15.80;99.90;;;;;;5024945;28;20041;-68
2022/09/07 04:49:56;;;;;;;10.68;8.15;;;15.70;99.90;;;;;;5041454;28;20377;-68
2022/09/07 04:52:23;;;;;;;10.45;8.80;;;15.70;99.90;;;;;;5022441;28;21698;-68
2022/09/07 04:54:49;;;;;;;9.68;7.85;;;15.70;99.90;;;;;;5025805;28;20492;-68
2022/09/07 04:57:15;;;;;;;9.55;8.50;;;15.60;99.90;;;;;;5005548;28;20482;-68
2022/09/07 04:59:41;;;;;;;10.30;8.32;;;15.60;99.90;;;;;;5040066;28;20103;-69
2022/09/07 05:02:07;;;;;;;11.35;9.07;;;15.60;99.90;;;;;;5021926;28;20535;-68
2022/09/07 05:04:35;;;;;;;13.63;9.13;;;15.60;99.90;;;;;;5040634;28;20087;-68
2022/09/07 05:07:01;;;;;;;12.88;8.65;;;15.60;99.90;;;;;;5026390;28;20044;-68
2022/09/07 05:09:26;;;;;;;13.75;8.70;;;15.60;99.90;;;;;;5042046;28;20052;-68
2022/09/07 05:11:52;;;;;;;13.60;9.82;;;15.60;99.90;;;;;;5024212;28;20136;-68
2022/09/07 05:14:19;;;;;;;13.85;9.65;;;15.60;99.90;;;;;;5020915;28;20397;-68
2022/09/07 05:16:45;;;;;;;17.05;10.55;;;15.60;99.90;;;;;;5010302;28;20462;-69
2022/09/07 05:19:12;;;;;;;15.18;11.05;;;15.70;99.90;;;;;;5039220;28;20053;-68
2022/09/07 05:21:38;;;;;;;14.05;11.10;;;15.60;99.90;;;;;;5026409;28;20053;-68
2022/09/07 05:24:04;;;;;;;18.45;12.70;;;15.70;99.90;;;;;;5020024;28;20603;-68
2022/09/07 05:26:32;;;;;;;19.10;13.52;;;15.70;99.90;;;;;;5030654;28;20439;-69
2022/09/07 05:29:03;;;;;;;21.08;15.38;;;15.70;99.90;;;;;;5023177;28;20046;-68
2022/09/07 05:31:29;;;;;;;23.52;14.93;;;15.80;99.90;;;;;;5024094;28;20162;-68
2022/09/07 05:33:58;;;;;;;25.05;15.88;;;15.80;99.90;;;;;;5010290;28;20041;-68
2022/09/07 05:36:28;;;;;;;18.10;14.85;;;15.80;99.90;;;;;;5011463;28;20099;-68
2022/09/07 05:38:55;;;;;;;24.45;16.38;;;15.80;99.90;;;;;;5039742;28;20037;-68
2022/09/07 05:41:23;;;;;;;27.20;19.63;;;15.90;99.90;;;;;;5022743;28;20048;-68
2022/09/07 05:43:49;;;;;;;28.83;19.67;;;15.90;99.90;;;;;;5020638;28;20088;-68
2022/09/07 05:46:16;;;;;;;29.15;21.33;;;16.00;99.90;;;;;;5013896;28;20048;-68
2022/09/07 05:48:43;;;;;;;28.90;22.08;;;16.00;99.90;;;;;;5031166;28;20456;-68
2022/09/07 05:51:09;;;;;;;28.60;22.40;;;16.00;99.90;;;;;;5042368;28;20144;-68
2022/09/07 05:53:36;;;;;;;28.63;23.02;;;16.10;99.90;;;;;;5038321;28;20492;-69
2022/09/07 05:56:04;;;;;;;29.55;23.90;;;16.10;99.90;;;;;;4997356;28;20064;-69
2022/09/07 05:58:31;;;;;;;30.45;23.95;;;16.10;99.90;;;;;;5032360;28;20513;-69
2022/09/07 06:01:08;;;;;;;32.08;26.33;;;16.10;99.90;;;;;;5031847;28;20132;-67
2022/09/07 06:03:36;;;;;;;31.20;25.15;;;16.20;99.90;;;;;;5030472;28;20055;-70
2022/09/07 06:06:04;;;;;;;35.83;26.58;;;16.20;99.90;;;;;;4996761;28;20041;-70
2022/09/07 06:08:31;;;;;;;34.58;27.15;;;16.20;99.90;;;;;;5017188;28;20110;-70
2022/09/07 06:10:56;;;;;;;36.35;26.77;;;16.30;99.90;;;;;;5032150;28;20040;-70
2022/09/07 06:13:22;;;;;;;35.70;28.02;;;16.30;99.90;;;;;;5031235;28;20518;-71
2022/09/07 06:15:48;;;;;;;32.38;25.50;;;16.30;99.90;;;;;;5030826;28;20052;-68
2022/09/07 06:18:13;;;;;;;39.67;29.52;;;16.30;99.90;;;;;;5015594;28;20107;-69
2022/09/07 06:20:39;;;;;;;33.88;27.15;;;16.30;99.90;;;;;;5034212;28;20172;-68
2022/09/07 06:23:06;;;;;;;30.75;25.73;;;16.40;99.90;;;;;;5030239;28;20057;-68
2022/09/07 06:25:32;;;;;;;29.75;25.23;;;16.30;99.90;;;;;;5033267;28;20041;-69
2022/09/07 06:27:58;;;;;;;33.10;24.23;;;16.30;99.90;;;;;;5019592;28;20038;-69
2022/09/07 06:30:24;;;;;;;32.15;26.65;;;16.30;99.90;;;;;;5035916;28;20115;-68
2022/09/07 06:32:50;;;;;;;28.40;23.98;;;16.30;99.90;;;;;;5032082;28;20478;-69
2022/09/07 06:35:16;;;;;;;30.15;24.90;;;16.30;99.90;;;;;;5035186;28;20049;-69
2022/09/07 06:37:42;;;;;;;30.02;24.73;;;16.30;99.90;;;;;;5017677;28;20284;-69
2022/09/07 06:40:10;;;;;;;34.67;25.30;;;16.30;99.90;;;;;;5033156;28;20077;-69
2022/09/07 06:42:35;;;;;;;30.85;24.35;;;16.30;99.90;;;;;;5028346;28;20037;-69
2022/09/07 06:45:01;;;;;;;29.67;24.15;;;16.20;99.90;;;;;;5034866;28;20492;-69
2022/09/07 06:47:27;;;;;;;31.52;24.98;;;16.20;99.90;;;;;;5016166;28;20560;-69
2022/09/07 06:49:53;;;;;;;33.97;26.30;;;16.30;99.90;;;;;;5013715;28;20092;-69
2022/09/07 06:52:18;;;;;;;31.35;25.90;;;16.20;99.90;;;;;;5033617;28;20048;-69
2022/09/07 06:54:44;;;;;;;34.83;27.10;;;16.20;99.90;;;;;;5031387;28;20040;-69
2022/09/07 06:57:10;;;;;;;34.40;27.00;;;16.30;99.90;;;;;;5019223;28;20416;-69
2022/09/07 06:59:36;;;;;;;34.22;26.38;;;16.30;99.90;;;;;;5031532;28;20412;-69
2022/09/07 07:02:02;;;;;;;32.15;26.38;;;16.20;99.90;;;;;;5037977;28;20659;-69
2022/09/07 07:04:28;;;;;;;33.25;26.63;;;16.20;99.90;;;;;;5014688;28;20037;-69
2022/09/07 07:06:54;;;;;;;36.50;27.63;;;16.30;99.90;;;;;;5021139;28;20491;-69
2022/09/07 07:09:19;;;;;;;38.47;26.98;;;16.20;99.90;;;;;;5000868;28;20156;-69
2022/09/07 07:11:46;;;;;;;36.88;26.92;;;16.20;99.90;;;;;;5037038;28;20091;-69
2022/09/07 07:14:15;;;;;;;34.38;28.27;;;16.30;99.90;;;;;;5033474;28;20292;-69
2022/09/07 07:16:41;;;;;;;30.70;25.80;;;16.30;99.90;;;;;;5006419;28;20056;-69
2022/09/07 07:19:06;;;;;;;33.03;25.48;;;16.30;99.90;;;;;;5016144;28;20505;-69
2022/09/07 07:21:32;;;;;;;32.33;26.15;;;16.30;99.90;;;;;;5015385;28;20316;-69
2022/09/07 07:23:57;;;;;;;32.15;26.80;;;16.30;99.90;;;;;;5033717;28;20073;-70
2022/09/07 07:26:27;;;;;;;39.95;29.55;;;16.40;99.90;;;;;;5021753;28;20089;-70
2022/09/07 07:28:55;;;;;;;38.67;30.23;;;16.40;99.90;;;;;;5015584;28;20141;-69
2022/09/07 07:31:23;;;;;;;41.35;31.10;;;16.40;99.90;;;;;;5035136;28;20049;-69
2022/09/07 07:36:52;;;;;;;47.08;35.85;;;16.40;99.90;;;;;;5020680;28;20052;-69
2022/09/07 07:39:18;;;;;;;46.10;35.97;;;16.50;99.90;;;;;;5037163;28;20045;-69
2022/09/07 07:41:43;;;;;;;45.35;35.33;;;16.40;99.90;;;;;;5034282;28;20052;-69
2022/09/07 07:44:09;;;;;;;48.92;35.67;;;16.40;99.90;;;;;;5036707;28;20069;-69
2022/09/07 07:46:35;;;;;;;46.33;35.10;;;16.40;99.90;;;;;;5021429;28;20037;-70
2022/09/07 07:49:00;;;;;;;41.65;33.10;;;16.50;99.90;;;;;;5030599;28;20057;-69
2022/09/07 07:51:26;;;;;;;43.80;33.60;;;16.50;99.90;;;;;;5035192;28;20049;-69
2022/09/07 07:53:51;;;;;;;42.85;34.00;;;16.60;99.90;;;;;;5031756;28;20523;-70
2022/09/07 07:56:17;;;;;;;41.88;32.97;;;16.60;99.90;;;;;;5025503;28;20128;-70
2022/09/07 07:58:45;;;;;;;41.40;33.13;;;16.60;99.90;;;;;;5030083;28;20399;-70
2022/09/07 08:01:13;;;;;;;47.75;34.67;;;16.70;99.90;;;;;;5035209;28;20808;-69
2022/09/07 08:03:40;;;;;;;46.50;34.03;;;16.70;99.90;;;;;;5030751;28;20501;-70
2022/09/07 08:06:08;;;;;;;41.50;33.17;;;16.60;99.90;;;;;;5030930;28;20057;-70
2022/09/07 08:08:35;;;;;;;42.40;33.35;;;16.40;99.90;;;;;;5022371;28;20131;-69
2022/09/07 08:11:09;;;;;;;46.85;34.50;;;16.60;99.90;;;;;;5035066;28;20053;-69
2022/09/07 08:13:36;;;;;;;44.80;34.40;;;16.70;99.90;;;;;;5034291;28;20040;-70
2022/09/07 08:16:02;;;;;;;43.65;34.22;;;16.80;99.90;;;;;;5017476;28;20072;-70
2022/09/07 08:18:28;;;;;;;42.42;33.88;;;16.90;99.90;;;;;;5018067;28;20132;-70
2022/09/07 08:20:59;;;;;;;46.55;35.28;;;16.90;99.90;;;;;;5029805;28;20136;-70
2022/09/07 08:23:25;;;;;;;;;;;17.00;99.90;;;;;;5034045;28;20327;-70
2022/09/07 08:25:57;;;;;;;43.70;32.60;;;17.00;99.90;;;;;;5013601;28;20150;-70
2022/09/07 08:28:23;;;;;;;40.40;32.80;;;17.00;99.90;;;;;;5019084;28;21130;-69
2022/09/07 08:30:49;;;;;;;41.70;33.05;;;17.10;99.90;;;;;;5035554;28;20040;-70
2022/09/07 08:33:15;;;;;;;44.45;33.72;;;17.10;99.90;;;;;;5034737;28;20045;-70
2022/09/07 08:35:40;;;;;;;41.80;31.80;;;17.10;99.90;;;;;;5035081;28;20408;-70
2022/09/07 08:38:06;;;;;;;42.03;32.88;;;17.10;99.90;;;;;;5020526;28;20050;-70
2022/09/07 08:40:35;;;;;;;40.00;32.97;;;17.10;99.90;;;;;;5015055;28;20049;-70
2022/09/07 08:43:23;;;;;;;39.55;31.40;;;17.10;99.90;;;;;;5034937;28;20500;-70
2022/09/07 08:46:02;;;;;;;42.67;32.38;;;17.10;99.90;;;;;;5033723;28;20586;-70
2022/09/07 08:48:33;;;;;;;47.45;34.38;;;17.10;99.90;;;;;;5015591;28;20046;-71
2022/09/07 08:51:07;;;;;;;45.90;36.22;;;17.10;99.90;;;;;;5035062;28;20355;-70
2022/09/07 08:53:45;;;;;;;42.55;33.60;;;17.10;99.90;;;;;;5033699;28;20064;-70
2022/09/07 08:56:32;;;;;;;40.90;34.03;;;17.20;99.90;;;;;;5028356;28;20878;-71
2022/09/07 08:59:05;;;;;;;39.90;33.40;;;17.20;99.90;;;;;;5050046;28;20048;-70
2022/09/07 09:01:36;;;;;;;38.38;32.10;;;17.20;99.90;;;;;;5034130;28;20041;-70
2022/09/07 09:04:03;;;;;;;;;;;17.30;99.90;;;;;;5031734;28;20621;-71
2022/09/07 09:07:04;;;;;;;40.75;33.47;;;17.30;99.90;;;;;;5021043;28;20524;-70
2022/09/07 09:09:44;;;;;;;43.80;33.97;;;17.30;99.90;;;;;;4993905;28;20045;-70
2022/09/07 09:12:41;;;;;;;41.28;33.20;;;17.40;99.90;;;;;;5040006;28;20512;-71
2022/09/07 09:15:33;;;;;;;39.70;32.45;;;17.50;99.90;;;;;;5039867;28;20060;-70
2022/09/07 09:18:20;;;;;;;42.45;34.08;;;17.70;99.90;;;;;;5024149;28;20049;-71
2022/09/07 09:20:50;;;;;;;41.78;32.90;;;17.70;99.90;;;;;;5039913;28;20112;-71
2022/09/07 09:23:18;;;;;;;43.50;33.25;;;17.70;99.90;;;;;;5042014;28;20037;-70
2022/09/07 09:26:13;;;;;;;38.53;31.92;;;17.80;99.90;;;;;;5041273;28;20053;-70
2022/09/07 09:28:39;;;;;;;40.30;31.85;;;17.80;99.90;;;;;;5030523;28;20083;-70
2022/09/07 09:31:04;;;;;;;35.88;30.08;;;17.90;99.90;;;;;;5041439;28;20064;-70
2022/09/07 09:33:30;;;;;;;36.95;31.63;;;18.00;99.90;;;;;;5038468;28;20424;-70
2022/09/07 09:35:59;;;;;;;34.03;29.92;;;18.10;99.90;;;;;;5038246;28;20475;-70
2022/09/07 09:38:39;;;;;;;36.17;29.77;;;18.20;99.90;;;;;;5022121;28;20047;-69
2022/09/07 09:41:14;;;;;;;36.40;30.80;;;18.30;99.90;;;;;;5038859;28;20056;-70
2022/09/07 09:43:51;;;;;;;35.72;28.95;;;18.40;99.90;;;;;;5020512;28;20496;-70
2022/09/07 09:46:20;;;;;;;40.25;29.35;;;18.40;99.90;;;;;;5028014;28;20044;-71
2022/09/07 09:48:54;;;;;;;31.15;26.42;;;18.60;99.90;;;;;;5030371;28;20042;-70
2022/09/07 09:51:22;;;;;;;32.70;28.25;;;18.70;99.90;;;;;;5040116;28;20060;-69
2022/09/07 09:54:05;;;;;;;33.95;27.23;;;18.90;99.90;;;;;;5039677;28;20086;-69
2022/09/07 09:56:42;;;;;;;33.50;26.70;;;18.80;99.90;;;;;;5006993;28;20131;-71
2022/09/07 09:59:16;;;;;;;31.10;27.30;;;19.00;99.90;;;;;;5037302;28;20041;-71
2022/09/07 10:01:46;;;;;;;30.73;24.98;;;19.30;99.90;;;;;;5039034;28;20052;-69
2022/09/07 10:04:24;;;;;;;25.08;21.42;;;19.50;99.90;;;;;;5036002;28;20095;-70
2022/09/07 10:06:54;;;;;;;21.58;17.13;;;19.40;99.90;;;;;;5022920;28;20044;-69
2022/09/07 10:09:23;;;;;;;14.70;13.18;;;19.20;99.90;;;;;;5037375;28;20049;-69
2022/09/07 10:11:57;;;;;;;14.98;12.15;;;19.20;99.90;;;;;;5038785;28;20044;-69
2022/09/07 10:14:45;;;;;;;12.82;11.55;;;19.20;99.90;;;;;;5038638;28;20037;-70
2022/09/07 10:17:40;;;;;;;13.90;11.88;;;19.30;99.90;;;;;;5022016;28;20115;-69
2022/09/07 10:20:14;;;;;;;12.35;11.15;;;19.30;99.90;;;;;;5032013;28;20068;-70
2022/09/07 10:22:43;;;;;;;16.13;12.02;;;19.40;99.90;;;;;;5035173;28;20524;-69
2022/09/07 10:25:33;;;;;;;12.07;10.68;;;19.60;99.90;;;;;;5037364;28;20520;-70
2022/09/07 10:28:08;;;;;;;10.18;8.98;;;19.70;99.90;;;;;;5022215;28;20053;-69
2022/09/07 10:31:15;;;;;;;8.30;7.50;;;19.80;99.90;;;;;;5042939;28;20083;-69
2022/09/07 10:33:54;;;;;;;8.75;7.85;;;19.70;99.90;;;;;;5037798;28;20041;-69
2022/09/07 10:36:35;;;;;;;10.48;9.38;;;19.70;99.90;;;;;;5028746;28;20571;-69
2022/09/07 10:39:05;;;;;;;9.63;8.35;;;19.70;99.90;;;;;;5034281;28;20553;-69
2022/09/07 10:41:45;;;;;;;9.83;8.80;;;19.80;99.90;;;;;;5036497;28;20404;-70
2022/09/07 10:44:31;;;;;;;12.00;9.07;;;20.10;99.90;;;;;;5037324;28;20085;-70
2022/09/07 10:47:24;;;;;;;10.75;9.63;;;20.20;99.90;;;;;;5022465;28;20392;-69
2022/09/07 10:50:19;;;;;;;9.48;8.48;;;20.20;99.90;;;;;;5052524;28;20493;-69
2022/09/07 10:52:51;;;;;;;8.43;7.63;;;20.20;99.90;;;;;;5035571;28;20450;-70
2022/09/07 10:55:27;;;;;;;8.43;6.85;;;20.30;99.90;;;;;;5037136;28;20071;-69
2022/09/07 10:58:12;;;;;;;10.20;6.75;;;20.50;99.90;;;;;;5002159;28;20052;-69
2022/09/07 11:01:03;;;;;;;8.38;6.72;;;20.60;99.90;;;;;;5041602;28;20048;-69
2022/09/07 11:03:55;;;;;;;9.02;8.15;;;20.70;99.90;;;;;;5040933;28;20036;-69
2022/09/07 11:06:28;;;;;;;8.63;7.43;;;20.60;99.90;;;;;;5025231;28;20128;-71
2022/09/07 11:09:30;;;;;;;9.18;7.60;;;20.60;99.90;;;;;;5034880;28;20095;-69
2022/09/07 11:12:20;;;;;;;8.25;6.50;;;20.60;99.90;;;;;;5039179;28;20573;-70
2022/09/07 11:14:52;;;;;;;7.03;6.00;;;20.50;99.90;;;;;;5036300;28;20052;-69
2022/09/07 11:17:22;;;;;;;6.75;5.63;;;20.50;99.90;;;;;;5021792;28;20037;-69
2022/09/07 11:19:54;;;;;;;6.20;5.53;;;20.60;99.90;;;;;;5040918;28;20037;-69
2022/09/07 11:22:40;;;;;;;6.65;5.13;;;20.80;99.90;;;;;;5039379;28;20052;-69
2022/09/07 11:25:13;;;;;;;7.43;4.85;;;20.80;99.90;;;;;;5038735;28;20088;-70
2022/09/07 11:27:50;;;;;;;4.90;4.40;;;20.80;99.90;;;;;;5023312;28;20048;-70
2022/09/07 11:30:23;;;;;;;5.40;4.00;;;20.80;99.90;;;;;;5038045;28;20036;-69
2022/09/07 11:33:10;;;;;;;4.05;3.00;;;20.80;99.90;;;;;;5040113;28;20041;-69
2022/09/07 11:35:52;;;;;;;3.45;2.38;;;20.80;99.90;;;;;;5039033;28;20053;-70
2022/09/07 11:38:22;;;;;;;;;;;21.00;99.90;;;;;;5024168;28;20037;-69
2022/09/07 11:41:14;;;;;;;3.75;2.30;;;21.20;99.90;;;;;;5038060;28;19925;-70
2022/09/07 11:43:45;;;;;;;4.45;3.20;;;21.20;99.90;;;;;;5040677;28;20043;-69
2022/09/07 11:46:25;;;;;;;;;;;21.20;99.90;;;;;;5031182;28;20114;-70
2022/09/07 11:48:54;;;;;;;4.35;2.55;;;21.40;99.90;;;;;;5034098;28;19951;-69
2022/09/07 11:51:30;;;;;;;4.55;2.72;;;21.30;99.90;;;;;;5040140;28;20076;-69
2022/09/07 11:54:00;;;;;;;4.00;2.10;;;21.40;99.90;;;;;;5043818;28;20126;-69
2022/09/07 11:56:37;;;;;;;2.53;2.25;;;21.60;99.90;;;;;;5027626;28;20055;-70
2022/09/07 11:59:45;;;;;;;2.80;1.88;;;21.60;99.90;;;;;;5038963;28;20045;-69
2022/09/07 12:02:22;;;;;;;1.95;1.50;;;21.60;99.90;;;;;;5029353;28;20068;-69
2022/09/07 12:04:54;;;;;;;3.25;1.45;;;21.80;99.90;;;;;;5040707;28;20041;-69
2022/09/07 12:07:25;;;;;;;3.78;1.90;;;22.00;99.90;;;;;;5025172;28;20041;-68
2022/09/07 12:09:54;;;;;;;3.00;1.42;;;22.10;99.90;;;;;;5042060;28;20045;-69
2022/09/07 12:12:37;;;;;;;1.83;1.10;;;22.30;99.90;;;;;;5037593;28;20075;-69
2022/09/07 12:15:18;;;;;;;2.85;1.38;;;22.50;99.90;;;;;;5025932;28;20045;-70
2022/09/07 12:18:02;;;;;;;2.70;1.20;;;22.60;99.90;;;;;;5026448;28;20131;-70
2022/09/07 12:20:39;;;;;;;2.80;1.60;;;22.40;99.90;;;;;;5038501;28;20049;-69
2022/09/07 12:23:19;;;;;;;2.17;1.23;;;22.30;99.90;;;;;;5040499;28;20048;-70
2022/09/07 12:25:50;;;;;;;3.05;1.20;;;22.10;99.90;;;;;;5040489;28;20048;-69
2022/09/07 12:28:22;;;;;;;1.42;1.13;;;22.10;99.90;;;;;;5023911;28;20054;-69
2022/09/07 12:30:55;;;;;;;3.58;0.73;;;22.50;99.90;;;;;;5041724;28;20052;-69
2022/09/07 12:33:49;;;;;;;1.63;1.00;;;22.60;99.90;;;;;;5040861;28;20045;-69
2022/09/07 12:36:27;;;;;;;2.85;1.20;;;22.60;99.90;;;;;;5030887;28;20049;-70
2022/09/07 12:39:05;;;;;;;3.63;1.48;;;22.60;99.90;;;;;;5039345;28;20049;-69
2022/09/07 12:41:43;;;;;;;2.65;1.30;;;22.70;99.90;;;;;;5038865;28;20084;-70
2022/09/07 12:44:18;;;;;;;2.25;1.02;;;22.80;99.90;;;;;;5040287;28;20310;-70
2022/09/07 12:46:46;;;;;;;2.03;1.10;;;22.80;99.90;;;;;;5022852;28;20084;-69
2022/09/07 12:49:41;;;;;;;1.45;1.00;;;22.90;99.90;;;;;;5041931;28;20110;-69
2022/09/07 12:52:37;;;;;;;1.20;1.10;;;22.80;99.90;;;;;;5039113;28;20049;-70
2022/09/07 12:55:26;;;;;;;1.27;0.82;;;22.70;99.90;;;;;;5041730;28;20608;-69
2022/09/07 12:58:06;;;;;;;1.33;1.10;;;22.70;99.90;;;;;;5025247;28;20339;-70
2022/09/07 13:00:51;;;;;;;2.40;1.42;;;22.70;99.90;;;;;;5038701;28;20127;-69
2022/09/07 13:03:26;;;;;;;1.65;1.10;;;22.80;99.90;;;;;;5039632;28;20764;-70